Time;durP1;ratioP1;P1;durP2;ratioP2;P2;SDS_P1;SDS_P2;PMS_P1;PMS_P2;Temp;Humidity;BMP_temperature;BMP_pressure;BME280_temperature;BME280_humidity;BME280_pressure;Samples;Min_cycle;Max_cycle;Signal;HPM_P1;HPM_P2
2022/10/01 00:02:16;;;;;;;9.50;6.78;;;17.60;88.00;;;;;;1905367;75;21077;-56
2022/10/01 00:04:45;;;;;;;9.80;7.40;;;17.60;87.90;;;;;;1905131;74;20999;-56
2022/10/01 00:07:15;;;;;;;11.22;7.80;;;17.60;87.90;;;;;;1905395;75;21097;-56
2022/10/01 00:09:44;;;;;;;12.68;8.48;;;17.50;87.70;;;;;;1905200;74;21418;-56
2022/10/01 00:12:15;;;;;;;7.83;6.67;;;17.50;87.70;;;;;;1905252;74;21086;-56
2022/10/01 00:14:44;;;;;;;11.12;7.20;;;17.50;87.30;;;;;;1905361;75;21077;-56
2022/10/01 00:17:13;;;;;;;9.30;6.72;;;17.50;86.90;;;;;;1905352;75;21020;-55
2022/10/01 00:19:42;;;;;;;8.60;7.10;;;17.40;87.20;;;;;;1905377;74;21024;-55
2022/10/01 00:22:12;;;;;;;12.50;7.00;;;17.30;87.70;;;;;;1905297;74;21120;-56
2022/10/01 00:24:41;;;;;;;11.90;6.75;;;17.30;87.70;;;;;;1905227;75;21030;-56
2022/10/01 00:27:11;;;;;;;9.05;5.65;;;17.30;87.50;;;;;;1905247;75;21152;-56
2022/10/01 00:29:43;;;;;;;8.48;5.60;;;17.30;87.50;;;;;;1892388;75;21069;-55
2022/10/01 00:32:12;;;;;;;7.40;5.92;;;17.30;87.60;;;;;;1905330;75;21067;-55
2022/10/01 00:34:41;;;;;;;7.72;6.67;;;17.30;87.90;;;;;;1905250;75;21083;-56
2022/10/01 00:37:11;;;;;;;7.92;5.62;;;17.30;88.00;;;;;;1905365;75;21077;-55
2022/10/01 00:39:40;;;;;;;7.78;5.75;;;17.30;88.20;;;;;;1905238;74;21097;-55
2022/10/01 00:42:21;;;;;;;9.13;5.90;;;17.40;88.10;;;;;;1905379;75;21043;-56
2022/10/01 00:44:52;;;;;;;11.73;5.62;;;17.40;87.90;;;;;;1905257;74;21028;-55
2022/10/01 00:47:51;;;;;;;13.05;6.75;;;17.40;87.70;;;;;;1905383;74;21063;-55
2022/10/01 00:50:34;;;;;;;8.08;6.00;;;17.30;87.90;;;;;;1905413;74;21019;-55
2022/10/01 00:53:07;;;;;;;9.90;6.92;;;17.30;88.10;;;;;;1905546;75;21027;-55
2022/10/01 00:55:41;;;;;;;9.45;6.10;;;17.30;87.90;;;;;;1905376;75;21015;-56
2022/10/01 00:58:13;;;;;;;7.28;6.30;;;17.30;87.90;;;;;;1904967;74;21193;-56
2022/10/01 01:00:43;;;;;;;8.58;6.00;;;17.20;88.10;;;;;;1905432;75;21019;-56
2022/10/01 01:03:13;;;;;;;10.10;6.25;;;17.30;88.40;;;;;;1905373;74;21028;-56
2022/10/01 01:05:42;;;;;;;8.70;6.60;;;17.30;88.50;;;;;;1905349;75;21085;-56
2022/10/01 01:08:12;;;;;;;10.78;7.45;;;17.30;88.40;;;;;;1905464;75;21050;-56
2022/10/01 01:11:11;;;;;;;9.93;6.47;;;17.20;88.20;;;;;;1905386;75;21170;-56
2022/10/01 01:13:58;;;;;;;9.13;6.75;;;17.20;87.90;;;;;;1904972;74;21023;-56
2022/10/01 01:16:32;;;;;;;9.08;6.95;;;17.20;87.80;;;;;;1873817;74;21486;-56
2022/10/01 01:19:09;;;;;;;8.65;6.80;;;17.10;87.70;;;;;;1905002;74;21015;-56
2022/10/01 01:21:44;;;;;;;11.12;7.28;;;17.10;87.80;;;;;;1903298;75;21036;-56
2022/10/01 01:24:14;;;;;;;;;;;17.10;87.80;;;;;;1907998;74;21453;-56
2022/10/01 01:26:55;;;;;;;11.03;7.33;;;17.00;87.60;;;;;;1905354;75;20105;-56
2022/10/01 01:29:30;;;;;;;10.98;6.53;;;17.00;87.60;;;;;;1905152;74;21036;-56
2022/10/01 01:32:02;;;;;;;8.03;6.87;;;17.00;87.70;;;;;;1905438;74;21085;-56
2022/10/01 01:34:33;;;;;;;10.90;6.37;;;17.00;88.50;;;;;;1905218;74;21011;-56
2022/10/01 01:37:10;;;;;;;10.63;7.00;;;17.00;88.00;;;;;;1905275;74;21070;-57
2022/10/01 01:39:40;;;;;;;13.03;7.17;;;16.90;88.00;;;;;;1905087;74;21454;-56
2022/10/01 01:42:12;;;;;;;10.08;7.22;;;16.90;88.50;;;;;;1905243;75;21041;-56
2022/10/01 01:44:44;;;;;;;9.10;7.08;;;16.90;88.70;;;;;;1903921;74;21028;-56
2022/10/01 01:47:14;;;;;;;11.22;7.33;;;17.00;88.70;;;;;;1905316;75;21039;-56
2022/10/01 01:49:45;;;;;;;9.53;7.60;;;17.00;88.50;;;;;;1905131;74;21015;-56
2022/10/01 01:52:16;;;;;;;11.25;6.95;;;17.00;88.40;;;;;;1905281;74;21028;-56
2022/10/01 01:54:46;;;;;;;9.63;7.28;;;17.00;88.50;;;;;;1905111;74;21042;-56
2022/10/01 01:57:17;;;;;;;12.07;7.17;;;17.00;88.80;;;;;;1913126;74;21120;-56
2022/10/01 01:59:47;;;;;;;7.28;5.85;;;17.00;88.90;;;;;;1924540;74;21030;-56
2022/10/01 02:02:24;;;;;;;9.05;6.65;;;17.00;88.70;;;;;;1924564;74;21034;-56
2022/10/01 02:04:56;;;;;;;10.13;6.40;;;17.00;88.70;;;;;;1924570;74;21034;-56
2022/10/01 02:07:57;;;;;;;10.20;7.25;;;17.00;88.80;;;;;;1924600;74;21523;-56
2022/10/01 02:10:50;;;;;;;11.68;6.47;;;17.00;88.30;;;;;;1924592;74;21027;-57
2022/10/01 02:13:38;;;;;;;9.58;6.47;;;16.90;88.50;;;;;;1924494;74;21051;-57
2022/10/01 02:16:29;;;;;;;7.20;6.25;;;16.90;88.80;;;;;;1923686;74;21050;-57
2022/10/01 02:19:07;;;;;;;10.13;7.12;;;16.90;89.00;;;;;;1924692;74;21047;-57
2022/10/01 02:21:51;;;;;;;10.55;6.85;;;17.00;89.00;;;;;;1924140;74;21092;-57
2022/10/01 02:24:38;;;;;;;9.15;6.30;;;17.00;89.00;;;;;;1913163;74;21023;-57
2022/10/01 02:27:15;;;;;;;11.48;7.05;;;17.00;88.90;;;;;;1924633;74;21010;-57
2022/10/01 02:29:45;;;;;;;11.78;6.87;;;16.90;88.70;;;;;;1923969;74;21501;-57
2022/10/01 02:32:16;;;;;;;9.88;7.10;;;16.90;88.50;;;;;;1924504;74;21112;-57
2022/10/01 02:34:47;;;;;;;10.75;6.50;;;16.90;88.90;;;;;;1924752;74;21022;-57
2022/10/01 02:37:18;;;;;;;8.50;6.30;;;16.90;89.10;;;;;;1924732;74;21003;-57
2022/10/01 02:39:50;;;;;;;10.70;7.00;;;16.90;89.20;;;;;;1924645;74;21024;-57
2022/10/01 02:42:21;;;;;;;11.73;6.78;;;16.90;89.40;;;;;;1924641;74;21023;-57
2022/10/01 02:44:53;;;;;;;8.50;6.67;;;16.90;89.40;;;;;;1924626;74;21117;-57
2022/10/01 02:47:32;;;;;;;7.85;6.08;;;16.90;89.40;;;;;;1924600;74;21066;-57
2022/10/01 02:49:59;;;;;;;10.40;7.03;;;16.90;89.50;;;;;;1924500;74;21096;-57
2022/10/01 02:52:49;;;;;;;14.90;6.87;;;16.90;89.60;;;;;;1924578;74;21027;-57
2022/10/01 02:55:21;;;;;;;9.78;6.87;;;16.80;89.30;;;;;;1859216;77;21066;-57
2022/10/01 02:57:51;;;;;;;9.83;6.58;;;16.80;89.40;;;;;;1897468;74;21530;-57
2022/10/01 03:00:20;;;;;;;14.50;7.10;;;16.80;88.70;;;;;;1905250;75;21086;-57
2022/10/01 03:02:50;;;;;;;8.13;7.17;;;16.80;89.40;;;;;;1905201;75;21016;-57
2022/10/01 03:05:19;;;;;;;10.40;7.08;;;16.70;89.80;;;;;;1905191;75;21089;-57
2022/10/01 03:07:49;;;;;;;10.63;7.50;;;16.70;90.00;;;;;;1905320;75;21012;-57
2022/10/01 03:10:18;;;;;;;11.70;7.53;;;16.70;90.00;;;;;;1905272;75;21077;-57
2022/10/01 03:12:47;;;;;;;11.30;7.08;;;16.70;90.00;;;;;;1905134;75;21073;-57
2022/10/01 03:15:21;;;;;;;11.50;6.83;;;16.70;90.30;;;;;;1905271;75;21120;-57
2022/10/01 03:17:54;;;;;;;11.88;7.12;;;16.60;90.00;;;;;;1905164;75;21034;-57
2022/10/01 03:20:23;;;;;;;15.40;6.85;;;16.60;89.90;;;;;;1905289;75;21070;-57
2022/10/01 03:22:52;;;;;;;8.95;6.67;;;16.60;90.00;;;;;;1905142;75;21073;-57
2022/10/01 03:25:22;;;;;;;14.43;7.67;;;16.60;90.00;;;;;;1905054;75;21532;-57
2022/10/01 03:27:52;;;;;;;11.85;7.97;;;16.70;89.70;;;;;;1905185;75;21521;-57
2022/10/01 03:30:21;;;;;;;12.13;7.35;;;16.70;90.20;;;;;;1905193;75;21540;-57
2022/10/01 03:32:50;;;;;;;15.38;8.10;;;16.70;89.90;;;;;;1905323;74;21059;-57
2022/10/01 03:35:20;;;;;;;10.98;6.42;;;16.60;89.70;;;;;;1905168;75;21096;-57
2022/10/01 03:37:49;;;;;;;8.78;6.35;;;16.60;90.00;;;;;;1905234;75;21102;-57
2022/10/01 03:40:19;;;;;;;10.40;6.35;;;16.60;90.10;;;;;;1905255;75;21027;-57
2022/10/01 03:42:48;;;;;;;7.95;6.10;;;16.60;90.10;;;;;;1905252;75;21027;-57
2022/10/01 03:45:18;;;;;;;9.70;6.08;;;16.60;90.00;;;;;;1905144;75;21003;-57
2022/10/01 03:47:54;;;;;;;6.10;5.58;;;16.50;90.00;;;;;;1905367;75;21019;-57
2022/10/01 03:50:23;;;;;;;11.40;5.67;;;16.50;90.10;;;;;;1905346;74;21043;-57
2022/10/01 03:52:52;;;;;;;8.23;6.35;;;16.60;90.20;;;;;;1905256;75;21124;-57
2022/10/01 03:55:21;;;;;;;9.73;6.25;;;16.70;90.20;;;;;;1905389;75;21093;-57
2022/10/01 03:57:51;;;;;;;9.78;6.53;;;16.70;90.00;;;;;;1905199;75;21023;-56
2022/10/01 04:00:20;;;;;;;7.25;5.95;;;16.70;90.10;;;;;;1905440;75;21015;-57
2022/10/01 04:02:49;;;;;;;7.83;5.92;;;16.70;90.20;;;;;;1905271;74;21031;-57
2022/10/01 04:05:19;;;;;;;19.37;6.95;;;16.70;90.60;;;;;;1905222;75;21074;-57
2022/10/01 04:07:49;;;;;;;8.78;6.22;;;16.80;90.40;;;;;;1905526;74;21020;-57
2022/10/01 04:10:18;;;;;;;10.95;6.55;;;16.80;90.30;;;;;;1905329;75;21031;-57
2022/10/01 04:12:47;;;;;;;9.53;5.80;;;16.90;90.30;;;;;;1905329;75;21081;-57
2022/10/01 04:15:17;;;;;;;12.75;6.42;;;16.90;90.20;;;;;;1905325;75;21089;-57
2022/10/01 04:17:46;;;;;;;12.25;6.62;;;16.90;90.00;;;;;;1905344;74;21085;-57
2022/10/01 04:20:15;;;;;;;25.97;13.45;;;16.90;89.60;;;;;;1905452;75;21019;-57
2022/10/01 04:22:45;;;;;;;28.80;12.75;;;16.90;89.60;;;;;;1905457;75;21121;-57
2022/10/01 04:25:15;;;;;;;17.85;11.18;;;16.90;89.90;;;;;;1905319;75;21019;-57
2022/10/01 04:27:55;;;;;;;13.30;9.50;;;16.90;90.10;;;;;;1905465;75;20995;-57
2022/10/01 04:30:26;;;;;;;10.75;7.10;;;17.00;90.10;;;;;;1905418;75;21011;-57
2022/10/01 04:32:56;;;;;;;19.62;13.55;;;17.00;90.10;;;;;;1905352;75;21050;-57
2022/10/01 04:35:26;;;;;;;16.85;10.72;;;17.10;90.20;;;;;;1905244;75;21020;-57
2022/10/01 04:38:06;;;;;;;14.15;8.08;;;17.20;90.10;;;;;;1905279;75;21075;-57
2022/10/01 04:40:36;;;;;;;14.05;7.90;;;17.20;90.00;;;;;;1904453;75;21016;-56
2022/10/01 04:43:10;;;;;;;13.45;8.85;;;17.20;89.70;;;;;;1905568;75;21144;-57
2022/10/01 04:45:39;;;;;;;11.93;7.58;;;17.30;89.90;;;;;;1905334;75;21126;-57
2022/10/01 04:48:08;;;;;;;10.80;6.55;;;17.30;90.00;;;;;;1905235;75;21019;-57
2022/10/01 04:50:38;;;;;;;9.20;7.03;;;17.40;90.00;;;;;;1905362;74;21019;-57
2022/10/01 04:53:07;;;;;;;9.98;7.55;;;17.40;89.60;;;;;;1905190;75;21055;-57
2022/10/01 04:55:37;;;;;;;10.32;6.72;;;17.50;89.60;;;;;;1905141;75;21097;-57
2022/10/01 04:58:06;;;;;;;10.00;6.37;;;17.50;89.50;;;;;;1905563;74;21132;-57
2022/10/01 05:00:36;;;;;;;12.90;6.70;;;17.60;89.10;;;;;;1924576;74;21018;-57
2022/10/01 05:03:05;;;;;;;12.28;7.35;;;17.60;89.00;;;;;;1924709;74;21488;-57
2022/10/01 05:05:35;;;;;;;12.23;6.55;;;17.70;88.90;;;;;;1924569;74;21039;-57
2022/10/01 05:08:04;;;;;;;12.75;8.20;;;17.70;89.10;;;;;;1924517;74;21116;-57
2022/10/01 05:10:34;;;;;;;10.85;7.17;;;17.90;89.30;;;;;;1924579;74;21058;-57
2022/10/01 05:13:03;;;;;;;13.48;8.18;;;18.00;89.00;;;;;;1924351;74;21116;-57
2022/10/01 05:15:34;;;;;;;17.55;8.18;;;18.10;88.60;;;;;;1924547;74;21023;-57
2022/10/01 05:18:03;;;;;;;21.85;7.30;;;18.10;88.40;;;;;;1924580;74;21006;-57
2022/10/01 05:20:33;;;;;;;13.25;7.10;;;18.20;88.20;;;;;;1924566;74;21152;-57
2022/10/01 05:23:02;;;;;;;10.45;6.72;;;18.30;88.10;;;;;;1924408;74;21019;-57
2022/10/01 05:25:31;;;;;;;11.75;6.35;;;18.40;87.80;;;;;;1924287;74;21498;-57
2022/10/01 05:28:04;;;;;;;12.90;6.55;;;18.40;87.60;;;;;;1924498;74;21019;-57
2022/10/01 05:30:34;;;;;;;12.50;6.58;;;18.50;87.70;;;;;;1924542;74;21070;-57
2022/10/01 05:33:04;;;;;;;11.65;6.60;;;18.60;87.40;;;;;;1924541;74;21026;-57
2022/10/01 05:35:33;;;;;;;12.13;6.60;;;18.70;87.20;;;;;;1924631;74;21394;-57
2022/10/01 05:38:03;;;;;;;13.05;5.97;;;18.70;86.90;;;;;;1924649;74;21019;-57
2022/10/01 05:40:32;;;;;;;9.33;5.72;;;18.80;86.60;;;;;;1924582;74;20995;-57
2022/10/01 05:43:03;;;;;;;8.05;5.70;;;18.90;86.30;;;;;;1924604;74;21020;-57
2022/10/01 05:45:34;;;;;;;10.68;5.80;;;18.90;85.50;;;;;;1924695;74;21050;-57
2022/10/01 05:48:05;;;;;;;16.45;8.25;;;19.00;85.50;;;;;;1924569;74;21123;-57
2022/10/01 05:50:41;;;;;;;9.10;7.15;;;19.10;85.40;;;;;;1924669;74;21478;-57
2022/10/01 05:53:13;;;;;;;13.85;7.42;;;19.10;85.30;;;;;;1924462;74;21039;-57
2022/10/01 05:55:43;;;;;;;14.03;7.85;;;19.20;85.10;;;;;;1924372;74;21015;-57
2022/10/01 05:58:14;;;;;;;25.08;8.75;;;19.30;85.20;;;;;;1924649;74;21038;-57
2022/10/01 06:00:43;;;;;;;14.45;8.25;;;19.40;85.20;;;;;;1924596;74;21050;-57
2022/10/01 06:03:13;;;;;;;11.10;6.87;;;19.40;85.00;;;;;;1924579;74;21062;-57
2022/10/01 06:05:44;;;;;;;12.45;6.28;;;19.50;84.70;;;;;;1924407;74;21073;-57
2022/10/01 06:08:14;;;;;;;14.00;6.97;;;19.60;84.60;;;;;;1924525;74;21119;-57
2022/10/01 06:10:43;;;;;;;16.32;7.03;;;19.70;84.10;;;;;;1924531;74;21085;-57
2022/10/01 06:13:20;;;;;;;11.95;6.60;;;19.70;83.90;;;;;;1924496;74;20999;-57
2022/10/01 06:15:47;;;;;;;12.67;6.57;;;19.80;83.70;;;;;;1924194;74;21046;-57
2022/10/01 06:18:16;;;;;;;16.50;7.03;;;19.90;83.40;;;;;;1924460;74;21172;-57
2022/10/01 06:20:45;;;;;;;18.32;6.20;;;19.90;83.10;;;;;;1924492;74;21014;-57
2022/10/01 06:23:14;;;;;;;7.83;5.72;;;20.00;82.80;;;;;;1924590;74;21084;-57
2022/10/01 06:25:44;;;;;;;8.70;5.35;;;20.10;82.50;;;;;;1924457;74;21066;-57
2022/10/01 06:28:14;;;;;;;11.57;5.90;;;20.20;82.20;;;;;;1924507;74;21092;-57
2022/10/01 06:30:43;;;;;;;9.63;5.62;;;20.20;81.90;;;;;;1924450;74;21038;-57
2022/10/01 06:33:15;;;;;;;10.28;6.05;;;20.30;81.60;;;;;;1924442;74;21089;-57
2022/10/01 06:35:46;;;;;;;8.88;4.72;;;20.40;81.40;;;;;;1924706;74;21139;-57
2022/10/01 06:38:16;;;;;;;9.83;5.55;;;20.40;81.10;;;;;;1924417;74;21084;-57
2022/10/01 06:40:47;;;;;;;12.40;4.83;;;20.50;80.70;;;;;;1924550;74;21023;-57
2022/10/01 06:43:16;;;;;;;8.60;4.17;;;20.60;80.60;;;;;;1924236;74;21473;-57
2022/10/01 06:45:45;;;;;;;7.67;4.62;;;20.70;79.90;;;;;;1924637;74;21089;-57
2022/10/01 06:48:16;;;;;;;8.35;5.17;;;20.80;79.70;;;;;;1924609;74;21023;-57
2022/10/01 06:50:46;;;;;;;9.48;4.60;;;20.90;79.40;;;;;;1924561;74;21023;-57
2022/10/01 06:53:17;;;;;;;7.45;4.00;;;20.90;79.00;;;;;;1924392;74;21050;-57
2022/10/01 06:55:46;;;;;;;5.05;3.65;;;21.00;78.70;;;;;;1924649;74;21081;-57
2022/10/01 06:58:18;;;;;;;6.83;4.80;;;21.20;78.10;;;;;;1924424;74;21096;-57
2022/10/01 07:00:47;;;;;;;7.80;4.17;;;21.30;77.60;;;;;;1924392;74;21051;-57
2022/10/01 07:03:19;;;;;;;8.15;4.28;;;21.40;77.40;;;;;;1924462;74;21046;-57
2022/10/01 07:05:50;;;;;;;6.25;4.10;;;21.50;77.30;;;;;;1924351;74;21027;-57
2022/10/01 07:08:19;;;;;;;9.20;4.33;;;21.60;76.80;;;;;;1924585;74;21011;-57
2022/10/01 07:10:48;;;;;;;16.35;3.70;;;21.70;75.90;;;;;;1924536;74;21068;-57
2022/10/01 07:13:19;;;;;;;7.75;3.55;;;21.70;75.40;;;;;;1924618;74;20994;-57
2022/10/01 07:15:48;;;;;;;8.28;3.02;;;21.90;75.30;;;;;;1924494;74;21119;-57
2022/10/01 07:18:17;;;;;;;4.80;3.22;;;21.90;75.00;;;;;;1924643;74;21426;-57
2022/10/01 07:20:47;;;;;;;5.78;3.60;;;22.00;74.30;;;;;;1924495;74;21015;-57
2022/10/01 07:23:16;;;;;;;4.95;3.22;;;22.10;74.00;;;;;;1924594;74;21018;-57
2022/10/01 07:25:46;;;;;;;5.83;3.17;;;22.10;73.70;;;;;;1924637;74;21018;-57
2022/10/01 07:28:17;;;;;;;5.92;3.20;;;22.20;73.60;;;;;;1924709;74;20995;-57
2022/10/01 07:30:49;;;;;;;5.65;3.10;;;22.30;73.40;;;;;;1923970;74;21121;-56
2022/10/01 07:33:19;;;;;;;4.12;3.25;;;22.40;73.30;;;;;;1923723;74;21038;-57
2022/10/01 07:35:49;;;;;;;7.45;3.67;;;22.50;72.80;;;;;;1924662;74;21116;-57
2022/10/01 07:38:18;;;;;;;7.00;4.10;;;22.60;72.90;;;;;;1924695;74;21019;-57
2022/10/01 07:40:54;;;;;;;6.37;3.30;;;22.70;72.80;;;;;;1924556;74;21076;-57
2022/10/01 07:43:23;;;;;;;6.55;3.25;;;22.70;72.60;;;;;;1924514;74;21014;-57
2022/10/01 07:45:53;;;;;;;4.78;2.87;;;22.80;72.50;;;;;;1924656;74;21512;-57
2022/10/01 07:48:23;;;;;;;4.05;3.35;;;22.80;72.00;;;;;;1924638;74;21035;-55
2022/10/01 07:50:52;;;;;;;6.17;2.90;;;22.80;71.70;;;;;;1924521;74;21018;-55
2022/10/01 07:53:22;;;;;;;6.70;3.02;;;22.90;71.00;;;;;;1924596;74;21022;-55
2022/10/01 07:55:52;;;;;;;5.50;3.12;;;23.00;70.30;;;;;;1924624;74;21414;-55
2022/10/01 07:58:22;;;;;;;6.08;2.80;;;23.10;69.90;;;;;;1924640;74;21031;-55
2022/10/01 08:00:58;;;;;;;5.67;2.72;;;23.20;69.00;;;;;;1917400;74;21043;-55
2022/10/01 08:03:23;;;;;;;10.43;5.20;;;23.30;68.30;;;;;;1904790;74;21020;-55
2022/10/01 08:05:53;;;;;;;7.20;3.37;;;23.40;68.10;;;;;;1905076;74;21035;-55
2022/10/01 08:08:22;;;;;;;3.05;2.33;;;23.50;67.80;;;;;;1905090;75;21101;-54
2022/10/01 08:10:51;;;;;;;5.53;2.60;;;23.50;67.40;;;;;;1905074;75;20999;-55
2022/10/01 08:13:23;;;;;;;4.72;2.83;;;23.50;67.30;;;;;;1905170;75;21477;-55
2022/10/01 08:15:55;;;;;;;5.95;2.40;;;23.60;67.10;;;;;;1905114;74;21039;-55
2022/10/01 08:18:25;;;;;;;7.90;2.47;;;23.60;67.30;;;;;;1905185;75;21144;-54
2022/10/01 08:20:54;;;;;;;4.70;3.00;;;23.70;66.80;;;;;;1905127;75;21070;-54
2022/10/01 08:23:23;;;;;;;3.05;2.33;;;23.80;66.70;;;;;;1905061;75;21082;-55
2022/10/01 08:25:53;;;;;;;7.78;2.60;;;23.80;66.20;;;;;;1905085;74;21073;-55
2022/10/01 08:28:22;;;;;;;4.55;2.20;;;23.80;65.80;;;;;;1905077;75;21128;-54
2022/10/01 08:30:52;;;;;;;4.35;2.55;;;23.90;65.50;;;;;;1905085;75;21015;-55
2022/10/01 08:33:21;;;;;;;6.58;3.08;;;23.90;65.10;;;;;;1905160;75;21016;-54
2022/10/01 08:35:51;;;;;;;13.93;8.10;;;23.90;64.60;;;;;;1905116;75;21089;-55
2022/10/01 08:38:20;;;;;;;5.30;2.83;;;24.00;64.30;;;;;;1905154;75;21019;-54
2022/10/01 08:40:51;;;;;;;7.15;2.60;;;24.10;63.90;;;;;;1905133;75;21179;-54
2022/10/01 08:43:41;;;;;;;5.12;2.25;;;24.10;63.60;;;;;;1905189;74;21039;-55
2022/10/01 08:46:21;;;;;;;4.40;3.00;;;24.10;63.10;;;;;;1905114;75;21016;-54
2022/10/01 08:49:02;;;;;;;5.72;2.95;;;24.20;63.40;;;;;;1905164;75;21031;-57
2022/10/01 08:51:43;;;;;;;5.95;3.17;;;24.20;63.10;;;;;;1904804;75;21003;-57
2022/10/01 08:54:33;;;;;;;8.83;2.80;;;24.30;62.60;;;;;;1905075;74;21102;-57
2022/10/01 08:57:05;;;;;;;9.25;5.15;;;24.40;62.40;;;;;;1905163;75;21564;-57
2022/10/01 08:59:46;;;;;;;15.40;9.48;;;24.50;62.70;;;;;;1905291;75;21410;-57
2022/10/01 09:02:36;;;;;;;5.95;2.92;;;24.50;62.50;;;;;;1918359;74;21167;-57
2022/10/01 09:05:24;;;;;;;5.17;2.20;;;24.50;62.30;;;;;;1924299;74;21054;-57
2022/10/01 09:08:17;;;;;;;5.17;2.12;;;24.60;62.20;;;;;;1924519;74;21077;-57
2022/10/01 09:10:55;;;;;;;5.03;2.15;;;24.60;62.00;;;;;;1924368;74;21092;-57
2022/10/01 09:13:48;;;;;;;7.50;3.67;;;24.70;61.80;;;;;;1924226;74;21101;-57
2022/10/01 09:16:46;;;;;;;3.25;2.60;;;24.70;61.50;;;;;;1924662;74;21152;-57
2022/10/01 09:19:36;;;;;;;38.17;31.55;;;24.80;61.80;;;;;;1924591;74;21035;-57
2022/10/01 09:22:25;;;;;;;7.75;3.40;;;24.80;61.60;;;;;;1924636;74;21081;-57
2022/10/01 09:24:57;;;;;;;5.62;2.12;;;24.80;61.10;;;;;;1915384;74;21038;-57
2022/10/01 09:27:28;;;;;;;8.00;2.70;;;24.90;61.30;;;;;;1924265;74;21512;-57
2022/10/01 09:30:02;;;;;;;7.17;2.87;;;25.00;61.20;;;;;;1924532;74;21076;-57
2022/10/01 09:32:40;;;;;;;5.87;2.65;;;25.10;61.10;;;;;;1924554;74;21050;-57
2022/10/01 09:35:21;;;;;;;5.37;2.67;;;25.10;60.60;;;;;;1924677;74;21039;-57
2022/10/01 09:38:02;;;;;;;5.15;3.05;;;25.20;60.50;;;;;;1924512;74;21546;-57
2022/10/01 09:40:40;;;;;;;6.22;3.27;;;25.20;60.80;;;;;;1924594;74;20994;-57
2022/10/01 09:43:10;;;;;;;7.95;2.55;;;25.30;60.40;;;;;;1924545;74;21485;-57
2022/10/01 09:45:40;;;;;;;2.40;2.02;;;25.30;60.20;;;;;;1924571;74;21022;-57
2022/10/01 09:48:31;;;;;;;5.10;2.17;;;25.30;60.00;;;;;;1924632;74;21100;-57
2022/10/01 09:51:03;;;;;;;5.45;2.37;;;25.40;60.00;;;;;;1924566;74;21089;-57
2022/10/01 09:53:44;;;;;;;8.75;7.80;;;25.40;59.90;;;;;;1922005;74;21027;-57
2022/10/01 09:56:18;;;;;;;5.87;2.62;;;25.50;59.80;;;;;;1924617;74;21473;-57
2022/10/01 09:58:51;;;;;;;4.67;2.42;;;25.50;59.10;;;;;;1923611;74;21003;-57
2022/10/01 10:01:50;;;;;;;6.55;2.50;;;25.50;59.40;;;;;;1922349;74;20998;-57
2022/10/01 10:04:26;;;;;;;4.05;2.92;;;25.50;59.00;;;;;;1904887;74;21077;-56
2022/10/01 10:06:53;;;;;;;5.00;2.40;;;25.60;59.30;;;;;;1903886;74;21442;-56
2022/10/01 10:09:25;;;;;;;4.50;3.65;;;25.60;59.10;;;;;;1904815;74;21024;-55
2022/10/01 10:11:55;;;;;;;3.95;2.42;;;25.70;59.10;;;;;;1905317;75;21027;-55
2022/10/01 10:14:33;;;;;;;8.63;2.37;;;25.70;58.80;;;;;;1905281;74;21089;-55
2022/10/01 10:17:08;;;;;;;5.15;2.40;;;25.70;58.90;;;;;;1905204;75;21203;-56
2022/10/01 10:19:38;;;;;;;4.60;2.65;;;25.80;58.80;;;;;;1902866;74;21438;-56
2022/10/01 10:22:27;;;;;;;6.12;2.77;;;25.80;58.30;;;;;;1905117;74;21015;-56
2022/10/01 10:24:57;;;;;;;4.10;2.95;;;25.90;58.50;;;;;;1905187;75;21043;-56
2022/10/01 10:27:29;;;;;;;4.90;3.00;;;25.90;58.40;;;;;;1905046;75;21023;-56
2022/10/01 10:30:16;;;;;;;5.95;4.95;;;25.90;58.50;;;;;;1905122;75;21023;-56
2022/10/01 10:32:46;;;;;;;5.72;3.02;;;25.90;58.50;;;;;;1905287;75;21295;-56
2022/10/01 10:35:20;;;;;;;9.05;2.70;;;25.90;58.50;;;;;;1905071;75;21124;-56
2022/10/01 10:37:56;;;;;;;5.20;2.58;;;25.90;58.40;;;;;;1904978;74;21018;-56
2022/10/01 10:40:34;;;;;;;10.88;3.30;;;26.00;58.10;;;;;;1904866;74;21062;-56
2022/10/01 10:43:03;;;;;;;7.25;2.70;;;26.00;58.10;;;;;;1904390;74;21019;-56
2022/10/01 10:45:40;;;;;;;9.00;3.87;;;26.00;58.10;;;;;;1905113;74;21000;-56
2022/10/01 10:48:15;;;;;;;8.78;2.70;;;26.00;58.10;;;;;;1905021;75;21109;-56
2022/10/01 10:50:46;;;;;;;8.43;3.02;;;26.00;57.90;;;;;;1904994;75;21007;-56
2022/10/01 10:53:24;;;;;;;10.68;2.72;;;26.10;57.80;;;;;;1905050;75;21066;-56
2022/10/01 10:55:59;;;;;;;3.95;2.30;;;26.10;57.60;;;;;;1905154;75;21079;-56
2022/10/01 10:58:29;;;;;;;3.25;2.40;;;26.10;57.90;;;;;;1905080;75;21101;-56
2022/10/01 11:01:01;;;;;;;4.80;2.40;;;26.20;58.00;;;;;;1902710;74;21596;-56
2022/10/01 11:03:32;;;;;;;5.80;2.50;;;26.10;58.00;;;;;;1904883;74;21506;-56
2022/10/01 11:06:13;;;;;;;4.95;2.60;;;26.20;58.20;;;;;;1905025;75;21414;-56
2022/10/01 11:08:44;;;;;;;5.25;3.30;;;26.20;58.40;;;;;;1905023;74;21007;-56
2022/10/01 11:11:19;;;;;;;5.50;2.33;;;26.20;58.50;;;;;;1905043;74;20992;-56
2022/10/01 11:14:16;;;;;;;8.03;3.00;;;26.20;58.50;;;;;;1888979;75;21125;-56
2022/10/01 11:16:50;;;;;;;4.67;2.92;;;26.20;58.60;;;;;;1904848;74;21089;-56
2022/10/01 11:19:28;;;;;;;5.42;2.67;;;26.20;58.70;;;;;;1904958;74;21505;-56
2022/10/01 11:22:20;;;;;;;4.03;2.92;;;26.30;58.60;;;;;;1904916;74;21082;-56
2022/10/01 11:24:55;;;;;;;5.33;2.65;;;26.20;58.50;;;;;;1905144;75;21036;-56
2022/10/01 11:27:43;;;;;;;5.12;3.02;;;26.30;58.60;;;;;;1888799;75;21027;-56
2022/10/01 11:30:22;;;;;;;6.78;3.25;;;26.20;58.60;;;;;;1905085;75;21101;-56
2022/10/01 11:32:59;;;;;;;10.68;2.92;;;26.30;58.60;;;;;;1905151;75;21470;-56
2022/10/01 11:35:29;;;;;;;6.78;2.75;;;26.30;58.60;;;;;;1905035;74;21427;-56
2022/10/01 11:38:10;;;;;;;4.55;3.00;;;26.30;58.50;;;;;;1904910;74;21523;-56
2022/10/01 11:40:48;;;;;;;9.65;3.10;;;26.30;59.10;;;;;;1904961;74;21031;-56
2022/10/01 11:43:32;;;;;;;13.55;3.02;;;26.30;58.30;;;;;;1904134;74;21118;-56
2022/10/01 11:46:04;;;;;;;4.95;3.37;;;26.30;58.30;;;;;;1905136;75;21007;-56
2022/10/01 11:48:37;;;;;;;4.87;2.35;;;26.30;58.40;;;;;;1900366;75;21023;-56
2022/10/01 11:51:12;;;;;;;7.28;2.80;;;26.30;58.30;;;;;;1904991;74;21159;-56
2022/10/01 11:53:59;;;;;;;9.43;3.77;;;26.30;58.10;;;;;;1901129;74;20999;-56
2022/10/01 11:59:37;;;;;;;3.83;3.02;;;26.30;57.80;;;;;;1905343;74;21167;-56
2022/10/01 12:02:16;;;;;;;4.62;2.30;;;26.30;57.50;;;;;;1905076;75;21020;-56
2022/10/01 12:04:56;;;;;;;3.35;2.60;;;26.30;57.30;;;;;;1905170;74;21015;-57
2022/10/01 12:07:39;;;;;;;3.30;2.30;;;26.40;57.20;;;;;;1905097;74;21043;-56
2022/10/01 12:10:20;;;;;;;4.20;2.47;;;26.40;57.70;;;;;;1904938;74;21043;-56
2022/10/01 12:12:52;;;;;;;5.95;2.47;;;26.40;57.50;;;;;;1905195;75;20995;-56
2022/10/01 12:15:28;;;;;;;6.15;2.52;;;26.30;57.80;;;;;;1904987;74;21141;-56
2022/10/01 12:18:05;;;;;;;4.05;2.40;;;26.30;57.50;;;;;;1905151;74;21028;-56
2022/10/01 12:20:49;;;;;;;5.45;2.60;;;26.30;57.70;;;;;;1905154;74;21474;-56
2022/10/01 12:23:21;;;;;;;4.30;2.97;;;26.40;57.40;;;;;;1904943;74;21502;-56
2022/10/01 12:26:28;;;;;;;5.22;2.40;;;26.30;57.50;;;;;;1905182;75;21470;-56
2022/10/01 12:29:05;;;;;;;12.98;3.25;;;26.30;57.50;;;;;;1905213;75;21031;-56
2022/10/01 12:31:38;;;;;;;5.28;2.65;;;26.30;57.50;;;;;;1905091;75;21531;-56
2022/10/01 12:34:33;;;;;;;3.80;2.50;;;26.30;56.70;;;;;;1905290;75;21015;-56
2022/10/01 12:37:28;;;;;;;7.75;3.25;;;26.20;57.00;;;;;;1904831;74;21088;-56
2022/10/01 12:40:25;;;;;;;4.85;2.45;;;26.20;57.30;;;;;;1905051;74;21027;-57
2022/10/01 12:43:03;;;;;;;3.12;2.35;;;26.20;57.30;;;;;;1905162;75;21011;-56
2022/10/01 12:45:47;;;;;;;4.62;2.85;;;26.20;57.50;;;;;;1905019;74;21495;-57
2022/10/01 12:48:31;;;;;;;3.62;2.35;;;26.20;57.30;;;;;;1905437;75;21090;-57
2022/10/01 12:51:23;;;;;;;15.43;3.83;;;26.10;57.20;;;;;;1905134;74;21032;-57
2022/10/01 12:54:23;;;;;;;8.25;3.45;;;26.10;57.50;;;;;;1904494;74;21133;-57
2022/10/01 12:57:01;;;;;;;3.77;2.47;;;26.10;56.60;;;;;;1905335;75;21035;-57
2022/10/01 12:59:35;;;;;;;6.33;2.62;;;26.00;56.60;;;;;;1904286;74;21109;-57
2022/10/01 13:02:08;;;;;;;;;;;26.00;56.70;;;;;;1907509;74;21118;-56
2022/10/01 13:04:55;;;;;;;6.72;2.90;;;26.00;56.20;;;;;;1905162;74;20140;-57
2022/10/01 13:07:46;;;;;;;4.97;2.60;;;26.00;57.00;;;;;;1904789;74;21477;-57
2022/10/01 13:10:30;;;;;;;3.70;2.80;;;26.00;57.00;;;;;;1905173;74;21008;-57
2022/10/01 13:13:15;;;;;;;4.12;2.50;;;26.00;57.10;;;;;;1876538;74;21124;-57
2022/10/01 13:15:48;;;;;;;3.40;2.20;;;26.00;56.90;;;;;;1898886;74;21035;-57
2022/10/01 13:18:36;;;;;;;7.03;2.80;;;26.00;56.80;;;;;;1905201;75;21043;-57
2022/10/01 13:21:14;;;;;;;6.87;2.77;;;25.90;56.40;;;;;;1905174;74;21096;-57
2022/10/01 13:23:49;;;;;;;5.60;3.05;;;25.90;56.80;;;;;;1881497;74;21015;-57